Trinidad, Colorado
Current Conditions -  °F | °C
As of 1:54 AM on Wednesday 22 Oct 2014 (Local Time) from KTAD Reporting Station
Clear Clear  
Wind Chill: 56°   Ceiling: Unl
Heat Index: 56°   Visibility: 10mi
Dew Point: 44°   Wind: 15mph
Humidity: 64%   Direction: 250°WSW
Pressure: 30.02"   Gusts: NA
Location:  37.17°N, 104.51°W
Report Text: KTAD 220754Z AUTO 25013KT 10SM CLR 13/07 A3002 RMK AO2 SLP099 T01330067
Loading
Personal Weather Stations






























Interactive Weather Map
Tropical Storm Tracking
New forecast layout! Learn more

10-Day Weather Forecast

Advertisements
Track Severe Weather on mobile